sensor_id;sensor_type;location;lat;lon;timestamp;temperature;humidity
57088;DHT22;42965;52.846;6.614;2023-12-20T00:02:26;5.70;99.90
57088;DHT22;42965;52.846;6.614;2023-12-20T00:04:52;5.70;99.90
57088;DHT22;42965;52.846;6.614;2023-12-20T00:07:19;5.80;99.90
57088;DHT22;42965;52.846;6.614;2023-12-20T00:09:45;5.70;99.90
57088;DHT22;42965;52.846;6.614;2023-12-20T00:12:12;5.80;99.90
57088;DHT22;42965;52.846;6.614;2023-12-20T00:14:38;5.80;99.90
57088;DHT22;42965;52.846;6.614;2023-12-20T00:17:04;5.60;99.90
57088;DHT22;42965;52.846;6.614;2023-12-20T00:19:30;5.70;99.90
57088;DHT22;42965;52.846;6.614;2023-12-20T00:22:00;5.60;99.90
57088;DHT22;42965;52.846;6.614;2023-12-20T00:24:26;5.60;99.90
57088;DHT22;42965;52.846;6.614;2023-12-20T00:26:52;5.50;99.90
57088;DHT22;42965;52.846;6.614;2023-12-20T00:29:18;5.50;99.90
57088;DHT22;42965;52.846;6.614;2023-12-20T00:31:44;5.40;99.90
57088;DHT22;42965;52.846;6.614;2023-12-20T00:34:14;5.30;99.90
57088;DHT22;42965;52.846;6.614;2023-12-20T00:36:40;5.40;99.90
57088;DHT22;42965;52.846;6.614;2023-12-20T00:39:09;5.30;99.90
57088;DHT22;42965;52.846;6.614;2023-12-20T00:41:35;5.30;99.90
57088;DHT22;42965;52.846;6.614;2023-12-20T00:44:01;5.20;99.90
57088;DHT22;42965;52.846;6.614;2023-12-20T00:46:27;5.20;99.90
57088;DHT22;42965;52.846;6.614;2023-12-20T00:49:14;5.10;99.90
57088;DHT22;42965;52.846;6.614;2023-12-20T00:51:40;5.10;99.90
57088;DHT22;42965;52.846;6.614;2023-12-20T00:54:27;5.10;99.90
57088;DHT22;42965;52.846;6.614;2023-12-20T00:56:54;5.20;99.90
57088;DHT22;42965;52.846;6.614;2023-12-20T00:59:21;5.10;99.90
57088;DHT22;42965;52.846;6.614;2023-12-20T01:01:47;5.10;99.90
57088;DHT22;42965;52.846;6.614;2023-12-20T01:04:14;5.20;99.90
57088;DHT22;42965;52.846;6.614;2023-12-20T01:06:43;5.30;99.90
57088;DHT22;42965;52.846;6.614;2023-12-20T01:09:11;5.30;99.90
57088;DHT22;42965;52.846;6.614;2023-12-20T01:11:37;5.20;99.90
57088;DHT22;42965;52.846;6.614;2023-12-20T01:14:04;5.20;99.90
57088;DHT22;42965;52.846;6.614;2023-12-20T01:16:50;5.30;99.90
57088;DHT22;42965;52.846;6.614;2023-12-20T01:19:17;5.40;99.90
57088;DHT22;42965;52.846;6.614;2023-12-20T01:21:44;5.50;99.90
57088;DHT22;42965;52.846;6.614;2023-12-20T01:24:10;5.30;99.90
57088;DHT22;42965;52.846;6.614;2023-12-20T01:26:39;5.30;99.90
57088;DHT22;42965;52.846;6.614;2023-12-20T01:29:06;5.40;99.90
57088;DHT22;42965;52.846;6.614;2023-12-20T01:31:32;5.50;99.90
57088;DHT22;42965;52.846;6.614;2023-12-20T01:33:59;5.40;99.90
57088;DHT22;42965;52.846;6.614;2023-12-20T01:36:25;5.40;99.90
57088;DHT22;42965;52.846;6.614;2023-12-20T01:38:51;5.50;99.90
57088;DHT22;42965;52.846;6.614;2023-12-20T01:41:18;5.50;99.90
57088;DHT22;42965;52.846;6.614;2023-12-20T01:43:44;5.40;99.90
57088;DHT22;42965;52.846;6.614;2023-12-20T01:46:11;5.40;99.90
57088;DHT22;42965;52.846;6.614;2023-12-20T01:48:38;5.50;99.90
57088;DHT22;42965;52.846;6.614;2023-12-20T01:51:05;5.50;99.90
57088;DHT22;42965;52.846;6.614;2023-12-20T01:53:31;5.50;99.90
57088;DHT22;42965;52.846;6.614;2023-12-20T01:55:58;5.40;99.90
57088;DHT22;42965;52.846;6.614;2023-12-20T01:58:25;5.60;99.90
57088;DHT22;42965;52.846;6.614;2023-12-20T02:00:52;5.60;99.90
57088;DHT22;42965;52.846;6.614;2023-12-20T02:03:19;5.60;99.90
57088;DHT22;42965;52.846;6.614;2023-12-20T02:05:47;5.70;99.90
57088;DHT22;42965;52.846;6.614;2023-12-20T02:08:14;5.80;99.90
57088;DHT22;42965;52.846;6.614;2023-12-20T02:10:41;5.80;99.90
57088;DHT22;42965;52.846;6.614;2023-12-20T02:13:08;5.80;99.90
57088;DHT22;42965;52.846;6.614;2023-12-20T02:15:34;5.80;99.90
57088;DHT22;42965;52.846;6.614;2023-12-20T02:18:03;5.80;99.90
57088;DHT22;42965;52.846;6.614;2023-12-20T02:20:30;5.80;99.90
57088;DHT22;42965;52.846;6.614;2023-12-20T02:22:57;5.80;99.90
57088;DHT22;42965;52.846;6.614;2023-12-20T02:25:23;5.90;99.90
57088;DHT22;42965;52.846;6.614;2023-12-20T02:27:49;5.90;99.90
57088;DHT22;42965;52.846;6.614;2023-12-20T02:30:16;5.90;99.90
57088;DHT22;42965;52.846;6.614;2023-12-20T02:32:43;5.90;99.90
57088;DHT22;42965;52.846;6.614;2023-12-20T02:35:09;5.90;99.90
57088;DHT22;42965;52.846;6.614;2023-12-20T02:37:35;5.80;99.90
57088;DHT22;42965;52.846;6.614;2023-12-20T02:40:21;5.80;99.90
57088;DHT22;42965;52.846;6.614;2023-12-20T02:42:48;5.90;99.90
57088;DHT22;42965;52.846;6.614;2023-12-20T02:45:14;5.80;99.90
57088;DHT22;42965;52.846;6.614;2023-12-20T02:47:41;5.80;99.90
57088;DHT22;42965;52.846;6.614;2023-12-20T02:50:08;5.80;99.90
57088;DHT22;42965;52.846;6.614;2023-12-20T02:52:34;5.80;99.90
57088;DHT22;42965;52.846;6.614;2023-12-20T02:55:00;5.80;99.90
57088;DHT22;42965;52.846;6.614;2023-12-20T02:57:27;5.90;99.90
57088;DHT22;42965;52.846;6.614;2023-12-20T02:59:53;5.90;99.90
57088;DHT22;42965;52.846;6.614;2023-12-20T03:02:19;6.00;99.90
57088;DHT22;42965;52.846;6.614;2023-12-20T03:04:45;6.00;99.90
57088;DHT22;42965;52.846;6.614;2023-12-20T03:07:12;6.00;99.90
57088;DHT22;42965;52.846;6.614;2023-12-20T03:09:38;6.00;99.90
57088;DHT22;42965;52.846;6.614;2023-12-20T03:12:05;6.00;99.90
57088;DHT22;42965;52.846;6.614;2023-12-20T03:14:31;6.10;99.90
57088;DHT22;42965;52.846;6.614;2023-12-20T03:16:58;6.10;99.90
57088;DHT22;42965;52.846;6.614;2023-12-20T03:19:44;6.00;99.90
57088;DHT22;42965;52.846;6.614;2023-12-20T03:22:10;6.10;99.90
57088;DHT22;42965;52.846;6.614;2023-12-20T03:24:37;6.00;99.90
57088;DHT22;42965;52.846;6.614;2023-12-20T03:27:05;6.00;99.90
57088;DHT22;42965;52.846;6.614;2023-12-20T03:29:31;5.90;99.90
57088;DHT22;42965;52.846;6.614;2023-12-20T03:31:58;5.90;99.90
57088;DHT22;42965;52.846;6.614;2023-12-20T03:34:24;5.90;99.90
57088;DHT22;42965;52.846;6.614;2023-12-20T03:36:50;5.90;99.90
57088;DHT22;42965;52.846;6.614;2023-12-20T03:39:16;5.90;99.90
57088;DHT22;42965;52.846;6.614;2023-12-20T03:41:42;5.90;99.90
57088;DHT22;42965;52.846;6.614;2023-12-20T03:44:08;5.90;99.90
57088;DHT22;42965;52.846;6.614;2023-12-20T03:46:35;5.80;99.90
57088;DHT22;42965;52.846;6.614;2023-12-20T03:49:01;5.80;99.90
57088;DHT22;42965;52.846;6.614;2023-12-20T03:51:27;5.90;99.90
57088;DHT22;42965;52.846;6.614;2023-12-20T03:53:53;5.80;99.90
57088;DHT22;42965;52.846;6.614;2023-12-20T03:56:19;5.80;99.90
57088;DHT22;42965;52.846;6.614;2023-12-20T03:58:49;5.80;99.90
57088;DHT22;42965;52.846;6.614;2023-12-20T04:01:15;5.90;99.90
57088;DHT22;42965;52.846;6.614;2023-12-20T04:03:41;5.90;99.90
57088;DHT22;42965;52.846;6.614;2023-12-20T04:06:07;5.90;99.90
57088;DHT22;42965;52.846;6.614;2023-12-20T04:08:34;5.90;99.90
57088;DHT22;42965;52.846;6.614;2023-12-20T04:11:00;6.00;99.90
57088;DHT22;42965;52.846;6.614;2023-12-20T04:13:27;6.00;99.90
57088;DHT22;42965;52.846;6.614;2023-12-20T04:15:53;6.10;99.90
57088;DHT22;42965;52.846;6.614;2023-12-20T04:18:19;6.10;99.90
57088;DHT22;42965;52.846;6.614;2023-12-20T04:20:46;6.10;99.90
57088;DHT22;42965;52.846;6.614;2023-12-20T04:23:12;6.10;99.90
57088;DHT22;42965;52.846;6.614;2023-12-20T04:25:39;6.10;99.90
57088;DHT22;42965;52.846;6.614;2023-12-20T04:28:05;6.10;99.90
57088;DHT22;42965;52.846;6.614;2023-12-20T04:30:32;6.20;99.90
57088;DHT22;42965;52.846;6.614;2023-12-20T04:32:58;6.10;99.90
57088;DHT22;42965;52.846;6.614;2023-12-20T04:35:24;6.20;99.90
57088;DHT22;42965;52.846;6.614;2023-12-20T04:37:50;6.20;99.90
57088;DHT22;42965;52.846;6.614;2023-12-20T04:40:20;6.20;99.90
57088;DHT22;42965;52.846;6.614;2023-12-20T04:42:47;6.10;99.90
57088;DHT22;42965;52.846;6.614;2023-12-20T04:45:13;6.10;99.90
57088;DHT22;42965;52.846;6.614;2023-12-20T04:47:44;6.20;99.90
57088;DHT22;42965;52.846;6.614;2023-12-20T04:50:12;6.20;99.90
57088;DHT22;42965;52.846;6.614;2023-12-20T04:52:39;6.20;99.90
57088;DHT22;42965;52.846;6.614;2023-12-20T04:55:05;6.20;99.90
57088;DHT22;42965;52.846;6.614;2023-12-20T04:57:32;6.30;99.90
57088;DHT22;42965;52.846;6.614;2023-12-20T04:59:58;6.30;99.90
57088;DHT22;42965;52.846;6.614;2023-12-20T05:02:25;6.20;99.90
57088;DHT22;42965;52.846;6.614;2023-12-20T05:04:51;6.20;99.90
57088;DHT22;42965;52.846;6.614;2023-12-20T05:07:17;6.20;99.90
57088;DHT22;42965;52.846;6.614;2023-12-20T05:09:43;6.30;99.90
57088;DHT22;42965;52.846;6.614;2023-12-20T05:12:09;6.30;99.90
57088;DHT22;42965;52.846;6.614;2023-12-20T05:14:37;6.30;99.90
57088;DHT22;42965;52.846;6.614;2023-12-20T05:17:03;6.40;99.90
57088;DHT22;42965;52.846;6.614;2023-12-20T05:19:30;6.40;99.90
57088;DHT22;42965;52.846;6.614;2023-12-20T05:21:56;6.50;99.90
57088;DHT22;42965;52.846;6.614;2023-12-20T05:24:24;6.50;99.90
57088;DHT22;42965;52.846;6.614;2023-12-20T05:26:50;6.50;99.90
57088;DHT22;42965;52.846;6.614;2023-12-20T05:29:16;6.60;99.90
57088;DHT22;42965;52.846;6.614;2023-12-20T05:31:43;6.60;99.90
57088;DHT22;42965;52.846;6.614;2023-12-20T05:34:09;6.60;99.90
57088;DHT22;42965;52.846;6.614;2023-12-20T05:36:38;6.60;99.90
57088;DHT22;42965;52.846;6.614;2023-12-20T05:39:05;6.60;99.90
57088;DHT22;42965;52.846;6.614;2023-12-20T05:41:31;6.70;99.90
57088;DHT22;42965;52.846;6.614;2023-12-20T05:44:17;6.70;99.90
57088;DHT22;42965;52.846;6.614;2023-12-20T05:46:43;6.60;99.90
57088;DHT22;42965;52.846;6.614;2023-12-20T05:49:10;6.70;99.90
57088;DHT22;42965;52.846;6.614;2023-12-20T05:51:37;6.70;99.90
57088;DHT22;42965;52.846;6.614;2023-12-20T05:54:03;6.70;99.90
57088;DHT22;42965;52.846;6.614;2023-12-20T05:56:31;6.80;99.90
57088;DHT22;42965;52.846;6.614;2023-12-20T05:58:58;6.80;99.90
57088;DHT22;42965;52.846;6.614;2023-12-20T06:01:25;6.80;99.90
57088;DHT22;42965;52.846;6.614;2023-12-20T06:03:51;6.80;99.90
57088;DHT22;42965;52.846;6.614;2023-12-20T06:06:17;6.80;99.90
57088;DHT22;42965;52.846;6.614;2023-12-20T06:08:44;6.80;99.90
57088;DHT22;42965;52.846;6.614;2023-12-20T06:11:10;6.80;99.90
57088;DHT22;42965;52.846;6.614;2023-12-20T06:13:37;6.90;99.90
57088;DHT22;42965;52.846;6.614;2023-12-20T06:16:05;6.90;99.90
57088;DHT22;42965;52.846;6.614;2023-12-20T06:18:33;6.90;99.90
57088;DHT22;42965;52.846;6.614;2023-12-20T06:20:59;6.90;99.90
57088;DHT22;42965;52.846;6.614;2023-12-20T06:23:27;6.90;99.90
57088;DHT22;42965;52.846;6.614;2023-12-20T06:25:54;7.00;99.90
57088;DHT22;42965;52.846;6.614;2023-12-20T06:28:20;6.90;99.90
57088;DHT22;42965;52.846;6.614;2023-12-20T06:30:46;7.00;99.90
57088;DHT22;42965;52.846;6.614;2023-12-20T06:33:15;7.00;99.90
57088;DHT22;42965;52.846;6.614;2023-12-20T06:35:41;7.00;99.90
57088;DHT22;42965;52.846;6.614;2023-12-20T06:38:08;7.00;99.90
57088;DHT22;42965;52.846;6.614;2023-12-20T06:40:35;7.00;99.90
57088;DHT22;42965;52.846;6.614;2023-12-20T06:43:21;7.00;99.90
57088;DHT22;42965;52.846;6.614;2023-12-20T06:45:48;7.00;99.90
57088;DHT22;42965;52.846;6.614;2023-12-20T06:48:14;7.00;99.90
57088;DHT22;42965;52.846;6.614;2023-12-20T06:50:41;7.00;99.90
57088;DHT22;42965;52.846;6.614;2023-12-20T06:53:07;7.00;99.90
57088;DHT22;42965;52.846;6.614;2023-12-20T06:55:35;7.10;99.90
57088;DHT22;42965;52.846;6.614;2023-12-20T06:58:03;7.00;99.90
57088;DHT22;42965;52.846;6.614;2023-12-20T07:00:30;7.10;99.90
57088;DHT22;42965;52.846;6.614;2023-12-20T07:02:57;7.10;99.90
57088;DHT22;42965;52.846;6.614;2023-12-20T07:05:23;7.10;99.90
57088;DHT22;42965;52.846;6.614;2023-12-20T07:07:49;7.10;99.90
57088;DHT22;42965;52.846;6.614;2023-12-20T07:10:15;7.10;99.90
57088;DHT22;42965;52.846;6.614;2023-12-20T07:12:42;7.10;99.90
57088;DHT22;42965;52.846;6.614;2023-12-20T07:15:09;7.10;99.90
57088;DHT22;42965;52.846;6.614;2023-12-20T07:17:37;7.10;99.90
57088;DHT22;42965;52.846;6.614;2023-12-20T07:20:04;7.10;99.90
57088;DHT22;42965;52.846;6.614;2023-12-20T07:22:33;7.10;99.90
57088;DHT22;42965;52.846;6.614;2023-12-20T07:25:00;7.10;99.90
57088;DHT22;42965;52.846;6.614;2023-12-20T07:27:26;7.10;99.90
57088;DHT22;42965;52.846;6.614;2023-12-20T07:29:53;7.20;99.90
57088;DHT22;42965;52.846;6.614;2023-12-20T07:32:19;7.20;99.90
57088;DHT22;42965;52.846;6.614;2023-12-20T07:34:45;7.20;99.90
57088;DHT22;42965;52.846;6.614;2023-12-20T07:37:13;7.20;99.90
57088;DHT22;42965;52.846;6.614;2023-12-20T07:39:41;7.30;99.90
57088;DHT22;42965;52.846;6.614;2023-12-20T07:42:08;7.30;99.90
57088;DHT22;42965;52.846;6.614;2023-12-20T07:44:35;7.30;99.90
57088;DHT22;42965;52.846;6.614;2023-12-20T07:47:04;7.30;99.90
57088;DHT22;42965;52.846;6.614;2023-12-20T07:49:31;7.30;99.90
57088;DHT22;42965;52.846;6.614;2023-12-20T07:51:57;7.30;99.90
57088;DHT22;42965;52.846;6.614;2023-12-20T07:54:24;7.30;99.90
57088;DHT22;42965;52.846;6.614;2023-12-20T07:56:50;7.30;99.90
57088;DHT22;42965;52.846;6.614;2023-12-20T07:59:16;7.40;99.90
57088;DHT22;42965;52.846;6.614;2023-12-20T08:01:43;7.40;99.90
57088;DHT22;42965;52.846;6.614;2023-12-20T08:04:09;7.40;99.90
57088;DHT22;42965;52.846;6.614;2023-12-20T08:06:36;7.50;99.90
57088;DHT22;42965;52.846;6.614;2023-12-20T08:09:02;7.50;99.90
57088;DHT22;42965;52.846;6.614;2023-12-20T08:11:48;7.50;99.90
57088;DHT22;42965;52.846;6.614;2023-12-20T08:14:15;7.50;99.90
57088;DHT22;42965;52.846;6.614;2023-12-20T08:16:42;7.60;99.90
57088;DHT22;42965;52.846;6.614;2023-12-20T08:19:09;7.50;99.90
57088;DHT22;42965;52.846;6.614;2023-12-20T08:21:35;7.60;99.90
57088;DHT22;42965;52.846;6.614;2023-12-20T08:24:01;7.60;99.90
57088;DHT22;42965;52.846;6.614;2023-12-20T08:26:27;7.60;99.90
57088;DHT22;42965;52.846;6.614;2023-12-20T08:28:53;7.60;99.90
57088;DHT22;42965;52.846;6.614;2023-12-20T08:31:20;7.70;99.90
57088;DHT22;42965;52.846;6.614;2023-12-20T08:33:48;7.70;99.90
57088;DHT22;42965;52.846;6.614;2023-12-20T08:36:15;7.80;99.90
57088;DHT22;42965;52.846;6.614;2023-12-20T08:38:43;7.90;99.90
57088;DHT22;42965;52.846;6.614;2023-12-20T08:41:09;8.00;99.90
57088;DHT22;42965;52.846;6.614;2023-12-20T08:43:37;8.10;99.90
57088;DHT22;42965;52.846;6.614;2023-12-20T08:46:05;8.10;99.90
57088;DHT22;42965;52.846;6.614;2023-12-20T08:48:32;8.10;99.90
57088;DHT22;42965;52.846;6.614;2023-12-20T08:51:01;8.10;99.90
57088;DHT22;42965;52.846;6.614;2023-12-20T08:53:27;8.10;99.90
57088;DHT22;42965;52.846;6.614;2023-12-20T08:55:56;8.10;99.90
57088;DHT22;42965;52.846;6.614;2023-12-20T08:58:29;8.20;99.90
57088;DHT22;42965;52.846;6.614;2023-12-20T09:01:16;8.20;99.90
57088;DHT22;42965;52.846;6.614;2023-12-20T09:03:42;8.30;99.90
57088;DHT22;42965;52.846;6.614;2023-12-20T09:06:09;8.30;99.90
57088;DHT22;42965;52.846;6.614;2023-12-20T09:08:35;8.30;99.90
57088;DHT22;42965;52.846;6.614;2023-12-20T09:11:01;8.30;99.90
57088;DHT22;42965;52.846;6.614;2023-12-20T09:13:48;8.30;99.90
57088;DHT22;42965;52.846;6.614;2023-12-20T09:16:14;8.40;99.90
57088;DHT22;42965;52.846;6.614;2023-12-20T09:18:42;8.30;99.90
57088;DHT22;42965;52.846;6.614;2023-12-20T09:21:08;8.40;99.90
57088;DHT22;42965;52.846;6.614;2023-12-20T09:23:35;8.40;99.90
57088;DHT22;42965;52.846;6.614;2023-12-20T09:26:03;8.40;99.90
57088;DHT22;42965;52.846;6.614;2023-12-20T09:28:29;8.40;99.90
57088;DHT22;42965;52.846;6.614;2023-12-20T09:30:56;8.40;99.90
57088;DHT22;42965;52.846;6.614;2023-12-20T09:33:23;8.40;99.90
57088;DHT22;42965;52.846;6.614;2023-12-20T09:35:50;8.50;99.90
57088;DHT22;42965;52.846;6.614;2023-12-20T09:38:17;8.60;99.90
57088;DHT22;42965;52.846;6.614;2023-12-20T09:40:47;9.00;99.90
57088;DHT22;42965;52.846;6.614;2023-12-20T09:43:19;9.20;99.90
57088;DHT22;42965;52.846;6.614;2023-12-20T09:45:52;9.10;99.90
57088;DHT22;42965;52.846;6.614;2023-12-20T09:48:19;9.00;99.90
57088;DHT22;42965;52.846;6.614;2023-12-20T09:50:46;8.60;99.90
57088;DHT22;42965;52.846;6.614;2023-12-20T09:53:15;8.10;99.90
57088;DHT22;42965;52.846;6.614;2023-12-20T09:55:42;7.70;99.90
57088;DHT22;42965;52.846;6.614;2023-12-20T09:58:08;7.40;99.90
57088;DHT22;42965;52.846;6.614;2023-12-20T10:00:35;7.20;99.90
57088;DHT22;42965;52.846;6.614;2023-12-20T10:03:01;7.00;99.90
57088;DHT22;42965;52.846;6.614;2023-12-20T10:05:31;7.00;99.90
57088;DHT22;42965;52.846;6.614;2023-12-20T10:07:58;6.90;99.90
57088;DHT22;42965;52.846;6.614;2023-12-20T10:10:25;6.90;99.90
57088;DHT22;42965;52.846;6.614;2023-12-20T10:13:05;6.90;99.90
57088;DHT22;42965;52.846;6.614;2023-12-20T10:15:33;6.80;99.90
57088;DHT22;42965;52.846;6.614;2023-12-20T10:18:00;6.80;99.90
57088;DHT22;42965;52.846;6.614;2023-12-20T10:20:28;6.80;99.90
57088;DHT22;42965;52.846;6.614;2023-12-20T10:23:01;6.80;99.90
57088;DHT22;42965;52.846;6.614;2023-12-20T10:25:27;6.80;99.90
57088;DHT22;42965;52.846;6.614;2023-12-20T10:28:14;6.80;99.90
57088;DHT22;42965;52.846;6.614;2023-12-20T10:30:41;6.80;99.90
57088;DHT22;42965;52.846;6.614;2023-12-20T10:33:07;6.70;99.90
57088;DHT22;42965;52.846;6.614;2023-12-20T10:35:37;6.80;99.90
57088;DHT22;42965;52.846;6.614;2023-12-20T10:38:05;6.80;99.90
57088;DHT22;42965;52.846;6.614;2023-12-20T10:40:34;6.80;99.90
57088;DHT22;42965;52.846;6.614;2023-12-20T10:43:03;6.80;99.90
57088;DHT22;42965;52.846;6.614;2023-12-20T10:45:30;6.80;99.90
57088;DHT22;42965;52.846;6.614;2023-12-20T10:47:56;6.90;99.90
57088;DHT22;42965;52.846;6.614;2023-12-20T10:50:26;6.90;99.90
57088;DHT22;42965;52.846;6.614;2023-12-20T10:52:55;7.00;99.90
57088;DHT22;42965;52.846;6.614;2023-12-20T10:55:24;7.10;99.90
57088;DHT22;42965;52.846;6.614;2023-12-20T10:58:07;7.20;99.90
57088;DHT22;42965;52.846;6.614;2023-12-20T11:00:39;7.20;99.90
57088;DHT22;42965;52.846;6.614;2023-12-20T11:03:09;7.30;99.90
57088;DHT22;42965;52.846;6.614;2023-12-20T11:05:50;7.30;99.90
57088;DHT22;42965;52.846;6.614;2023-12-20T11:11:20;7.20;99.90
57088;DHT22;42965;52.846;6.614;2023-12-20T11:14:13;7.20;99.90
57088;DHT22;42965;52.846;6.614;2023-12-20T11:17:10;7.20;99.90
57088;DHT22;42965;52.846;6.614;2023-12-20T11:22:29;7.30;99.90
57088;DHT22;42965;52.846;6.614;2023-12-20T11:25:25;7.40;99.90
57088;DHT22;42965;52.846;6.614;2023-12-20T11:28:13;7.50;99.90
57088;DHT22;42965;52.846;6.614;2023-12-20T11:30:51;7.60;99.90
57088;DHT22;42965;52.846;6.614;2023-12-20T11:33:27;7.60;99.90
57088;DHT22;42965;52.846;6.614;2023-12-20T11:35:58;7.70;99.90
57088;DHT22;42965;52.846;6.614;2023-12-20T11:38:36;7.80;99.90
57088;DHT22;42965;52.846;6.614;2023-12-20T11:41:05;7.80;99.90
57088;DHT22;42965;52.846;6.614;2023-12-20T11:43:35;7.70;99.90
57088;DHT22;42965;52.846;6.614;2023-12-20T11:46:06;7.70;99.90
57088;DHT22;42965;52.846;6.614;2023-12-20T11:48:39;7.70;99.90
57088;DHT22;42965;52.846;6.614;2023-12-20T11:51:26;7.70;99.90
57088;DHT22;42965;52.846;6.614;2023-12-20T11:53:52;7.60;99.90
57088;DHT22;42965;52.846;6.614;2023-12-20T11:56:19;7.60;99.90
57088;DHT22;42965;52.846;6.614;2023-12-20T11:58:46;7.70;99.90
57088;DHT22;42965;52.846;6.614;2023-12-20T12:01:13;7.60;99.90
57088;DHT22;42965;52.846;6.614;2023-12-20T12:03:39;7.60;99.90
57088;DHT22;42965;52.846;6.614;2023-12-20T12:06:18;7.70;99.90
57088;DHT22;42965;52.846;6.614;2023-12-20T12:08:44;7.70;99.90
57088;DHT22;42965;52.846;6.614;2023-12-20T12:11:10;7.70;99.90
57088;DHT22;42965;52.846;6.614;2023-12-20T12:13:37;7.70;99.90
57088;DHT22;42965;52.846;6.614;2023-12-20T12:16:04;7.70;99.90
57088;DHT22;42965;52.846;6.614;2023-12-20T12:18:31;7.80;99.90
57088;DHT22;42965;52.846;6.614;2023-12-20T12:21:01;7.80;99.90
57088;DHT22;42965;52.846;6.614;2023-12-20T12:23:29;7.80;99.90
57088;DHT22;42965;52.846;6.614;2023-12-20T12:25:56;7.80;99.90
57088;DHT22;42965;52.846;6.614;2023-12-20T12:28:26;7.70;99.90
57088;DHT22;42965;52.846;6.614;2023-12-20T12:30:58;7.70;99.90
57088;DHT22;42965;52.846;6.614;2023-12-20T12:33:25;7.70;99.90
57088;DHT22;42965;52.846;6.614;2023-12-20T12:35:52;7.70;99.90
57088;DHT22;42965;52.846;6.614;2023-12-20T12:38:22;7.60;99.90
57088;DHT22;42965;52.846;6.614;2023-12-20T12:40:50;7.60;99.90
57088;DHT22;42965;52.846;6.614;2023-12-20T12:43:16;7.60;99.90
57088;DHT22;42965;52.846;6.614;2023-12-20T12:45:42;7.60;99.90
57088;DHT22;42965;52.846;6.614;2023-12-20T12:48:09;7.60;99.90
57088;DHT22;42965;52.846;6.614;2023-12-20T12:50:35;7.50;99.90
57088;DHT22;42965;52.846;6.614;2023-12-20T12:53:02;7.50;99.90
57088;DHT22;42965;52.846;6.614;2023-12-20T12:55:28;7.50;99.90
57088;DHT22;42965;52.846;6.614;2023-12-20T12:57:54;7.40;99.90
57088;DHT22;42965;52.846;6.614;2023-12-20T13:00:24;7.40;99.90
57088;DHT22;42965;52.846;6.614;2023-12-20T13:02:52;7.30;99.90
57088;DHT22;42965;52.846;6.614;2023-12-20T13:05:38;7.30;99.90
57088;DHT22;42965;52.846;6.614;2023-12-20T13:08:08;7.30;99.90
57088;DHT22;42965;52.846;6.614;2023-12-20T13:10:38;7.20;99.90
57088;DHT22;42965;52.846;6.614;2023-12-20T13:13:04;7.10;99.90
57088;DHT22;42965;52.846;6.614;2023-12-20T13:15:30;7.10;99.90
57088;DHT22;42965;52.846;6.614;2023-12-20T13:17:57;7.00;99.90
57088;DHT22;42965;52.846;6.614;2023-12-20T13:20:25;7.00;99.90
57088;DHT22;42965;52.846;6.614;2023-12-20T13:22:52;6.90;99.90
57088;DHT22;42965;52.846;6.614;2023-12-20T13:25:19;6.90;99.90
57088;DHT22;42965;52.846;6.614;2023-12-20T13:27:45;7.00;99.90
57088;DHT22;42965;52.846;6.614;2023-12-20T13:30:18;7.00;99.90
57088;DHT22;42965;52.846;6.614;2023-12-20T13:32:44;6.90;99.90
57088;DHT22;42965;52.846;6.614;2023-12-20T13:35:11;6.80;99.90
57088;DHT22;42965;52.846;6.614;2023-12-20T13:37:38;6.80;99.90
57088;DHT22;42965;52.846;6.614;2023-12-20T13:40:05;6.70;99.90
57088;DHT22;42965;52.846;6.614;2023-12-20T13:42:32;6.80;99.90
57088;DHT22;42965;52.846;6.614;2023-12-20T13:44:59;6.70;99.90
57088;DHT22;42965;52.846;6.614;2023-12-20T13:47:26;6.70;99.90
57088;DHT22;42965;52.846;6.614;2023-12-20T13:49:52;6.60;99.90
57088;DHT22;42965;52.846;6.614;2023-12-20T13:52:18;6.60;99.90
57088;DHT22;42965;52.846;6.614;2023-12-20T13:55:04;6.60;99.90
57088;DHT22;42965;52.846;6.614;2023-12-20T13:57:35;6.60;99.90
57088;DHT22;42965;52.846;6.614;2023-12-20T14:00:05;6.60;99.90
57088;DHT22;42965;52.846;6.614;2023-12-20T14:02:33;6.60;99.90
57088;DHT22;42965;52.846;6.614;2023-12-20T14:05:00;6.60;99.90
57088;DHT22;42965;52.846;6.614;2023-12-20T14:07:34;6.60;99.90
57088;DHT22;42965;52.846;6.614;2023-12-20T14:10:20;6.60;99.90
57088;DHT22;42965;52.846;6.614;2023-12-20T14:12:47;6.60;99.90
57088;DHT22;42965;52.846;6.614;2023-12-20T14:15:13;6.60;99.90
57088;DHT22;42965;52.846;6.614;2023-12-20T14:17:40;6.50;99.90
57088;DHT22;42965;52.846;6.614;2023-12-20T14:20:08;6.60;99.90
57088;DHT22;42965;52.846;6.614;2023-12-20T14:22:55;6.60;99.90
57088;DHT22;42965;52.846;6.614;2023-12-20T14:25:21;6.60;99.90
57088;DHT22;42965;52.846;6.614;2023-12-20T14:27:49;6.50;99.90
57088;DHT22;42965;52.846;6.614;2023-12-20T14:30:15;6.60;99.90
57088;DHT22;42965;52.846;6.614;2023-12-20T14:32:42;6.50;99.90
57088;DHT22;42965;52.846;6.614;2023-12-20T14:35:14;6.50;99.90
57088;DHT22;42965;52.846;6.614;2023-12-20T14:38:00;6.60;99.90
57088;DHT22;42965;52.846;6.614;2023-12-20T14:40:27;6.50;99.90
57088;DHT22;42965;52.846;6.614;2023-12-20T14:42:53;6.50;99.90
57088;DHT22;42965;52.846;6.614;2023-12-20T14:45:19;6.50;99.90
57088;DHT22;42965;52.846;6.614;2023-12-20T14:47:45;6.50;99.90
57088;DHT22;42965;52.846;6.614;2023-12-20T14:50:13;6.50;99.90
57088;DHT22;42965;52.846;6.614;2023-12-20T14:52:45;6.50;99.90
57088;DHT22;42965;52.846;6.614;2023-12-20T14:55:13;6.60;99.90
57088;DHT22;42965;52.846;6.614;2023-12-20T14:57:39;6.60;99.90
57088;DHT22;42965;52.846;6.614;2023-12-20T15:00:07;6.60;99.90
57088;DHT22;42965;52.846;6.614;2023-12-20T15:02:34;6.60;99.90
57088;DHT22;42965;52.846;6.614;2023-12-20T15:05:01;6.60;99.90
57088;DHT22;42965;52.846;6.614;2023-12-20T15:07:27;6.60;99.90
57088;DHT22;42965;52.846;6.614;2023-12-20T15:09:53;6.60;99.90
57088;DHT22;42965;52.846;6.614;2023-12-20T15:12:20;6.60;99.90
57088;DHT22;42965;52.846;6.614;2023-12-20T15:14:46;6.60;99.90
57088;DHT22;42965;52.846;6.614;2023-12-20T15:17:12;6.60;99.90
57088;DHT22;42965;52.846;6.614;2023-12-20T15:19:38;6.60;99.90
57088;DHT22;42965;52.846;6.614;2023-12-20T15:22:05;6.60;99.90
57088;DHT22;42965;52.846;6.614;2023-12-20T15:24:31;6.60;99.90
57088;DHT22;42965;52.846;6.614;2023-12-20T15:27:05;6.50;99.90
57088;DHT22;42965;52.846;6.614;2023-12-20T15:29:31;6.50;99.90
57088;DHT22;42965;52.846;6.614;2023-12-20T15:31:58;6.60;99.90
57088;DHT22;42965;52.846;6.614;2023-12-20T15:34:24;6.60;99.90
57088;DHT22;42965;52.846;6.614;2023-12-20T15:36:51;6.70;99.90
57088;DHT22;42965;52.846;6.614;2023-12-20T15:39:17;6.70;99.90
57088;DHT22;42965;52.846;6.614;2023-12-20T15:42:03;6.80;99.90
57088;DHT22;42965;52.846;6.614;2023-12-20T15:44:29;6.80;99.90
57088;DHT22;42965;52.846;6.614;2023-12-20T15:46:56;6.90;99.90
57088;DHT22;42965;52.846;6.614;2023-12-20T15:49:22;7.00;99.90
57088;DHT22;42965;52.846;6.614;2023-12-20T15:51:49;7.10;99.90
57088;DHT22;42965;52.846;6.614;2023-12-20T15:54:15;7.10;99.90
57088;DHT22;42965;52.846;6.614;2023-12-20T15:56:41;7.20;99.90
57088;DHT22;42965;52.846;6.614;2023-12-20T15:59:15;7.30;99.90